Time;durP1;ratioP1;P1;durP2;ratioP2;P2;SDS_P1;SDS_P2;PMS_P1;PMS_P2;Temp;Humidity;BMP_temperature;BMP_pressure;BME280_temperature;BME280_humidity;BME280_pressure;Samples;Min_cycle;Max_cycle;Signal;HPM_P1;HPM_P2
2022/05/24 00:00:00;;;;;;;4.70;1.90;;;22.80;51.60;;;;;;5106102;28;20016;-49
2022/05/24 00:02:26;;;;;;;5.57;2.05;;;22.80;51.60;;;;;;5105174;28;20028;-49
2022/05/24 00:04:52;;;;;;;3.58;1.67;;;22.80;51.50;;;;;;5105588;28;20123;-53
2022/05/24 00:07:19;;;;;;;3.65;1.92;;;22.80;51.60;;;;;;5105307;28;20020;-45
2022/05/24 00:09:45;;;;;;;3.80;1.73;;;22.80;51.50;;;;;;5104857;28;20061;-53
2022/05/24 00:12:11;;;;;;;2.97;1.63;;;22.70;51.40;;;;;;5104931;28;20016;-46
2022/05/24 00:17:24;;;;;;;4.00;1.40;;;22.80;51.40;;;;;;5104204;28;20035;-48
2022/05/24 00:19:50;;;;;;;4.13;1.77;;;22.70;51.30;;;;;;5104079;28;20016;-49
2022/05/24 00:22:17;;;;;;;3.25;1.73;;;22.70;51.30;;;;;;5104232;28;20048;-50
2022/05/24 00:24:43;;;;;;;3.25;1.77;;;22.70;51.20;;;;;;5103653;28;20117;-52
2022/05/24 00:27:10;;;;;;;6.60;2.33;;;22.70;51.20;;;;;;5102579;28;20025;-48
2022/05/24 00:29:35;;;;;;;3.90;1.80;;;22.70;51.20;;;;;;5102273;28;20024;-47
2022/05/24 00:32:02;;;;;;;2.58;1.45;;;22.70;51.20;;;;;;5103195;28;20069;-50
2022/05/24 00:34:29;;;;;;;3.33;1.75;;;22.70;51.10;;;;;;5103888;28;20027;-51
2022/05/24 00:36:55;;;;;;;3.50;1.75;;;22.70;51.10;;;;;;5104773;28;20030;-46
2022/05/24 00:39:23;;;;;;;5.13;1.70;;;22.60;51.00;;;;;;5104866;28;20518;-52
2022/05/24 00:42:01;;;;;;;3.15;1.63;;;22.70;51.10;;;;;;5101682;28;20027;-48
2022/05/24 00:44:34;;;;;;;3.50;1.63;;;22.60;51.50;;;;;;5100130;28;20532;-53
2022/05/24 00:47:13;;;;;;;2.63;1.45;;;22.70;51.00;;;;;;5100334;28;20054;-48
2022/05/24 00:49:46;;;;;;;4.43;2.00;;;22.70;50.90;;;;;;5098844;28;20082;-54
2022/05/24 00:52:17;;;;;;;4.55;1.77;;;22.70;50.80;;;;;;5084230;28;20012;-52
2022/05/24 00:54:44;;;;;;;3.97;1.63;;;22.70;50.80;;;;;;5101979;28;20012;-48
2022/05/24 00:57:31;;;;;;;4.15;1.73;;;22.60;50.70;;;;;;5101992;28;20024;-50
2022/05/24 01:00:08;;;;;;;3.35;1.52;;;22.70;50.70;;;;;;5100421;28;20028;-53
2022/05/24 01:02:36;;;;;;;8.18;1.70;;;22.60;50.60;;;;;;5099993;28;20013;-53
2022/05/24 01:05:03;;;;;;;3.42;1.70;;;22.60;50.60;;;;;;5100626;28;20087;-52
2022/05/24 01:07:37;;;;;;;4.82;1.80;;;22.60;50.60;;;;;;5101659;28;20020;-53
2022/05/24 01:10:09;;;;;;;3.45;1.58;;;22.60;50.50;;;;;;5102284;28;20016;-54
2022/05/24 01:13:06;;;;;;;4.07;1.73;;;22.60;50.60;;;;;;5101248;28;20087;-51
2022/05/24 01:15:32;;;;;;;2.40;1.45;;;22.60;50.60;;;;;;5098787;28;20080;-48
2022/05/24 01:17:59;;;;;;;4.55;1.25;;;22.60;50.50;;;;;;5099194;28;20024;-50
2022/05/24 01:20:25;;;;;;;4.22;1.70;;;22.60;50.50;;;;;;5097998;28;20046;-50
2022/05/24 01:23:03;;;;;;;3.03;1.75;;;22.60;50.50;;;;;;5098392;28;20517;-47
2022/05/24 01:25:30;;;;;;;5.07;1.67;;;22.60;50.50;;;;;;5098028;28;20039;-51
2022/05/24 01:27:57;;;;;;;3.50;1.65;;;22.60;50.50;;;;;;5097790;28;20020;-50
2022/05/24 01:30:23;;;;;;;3.10;1.40;;;22.60;50.40;;;;;;5099756;28;20474;-49
2022/05/24 01:38:21;;;;;;;4.30;2.00;;;22.60;50.30;;;;;;5097423;28;20592;-51
2022/05/24 01:40:47;;;;;;;4.32;1.58;;;22.50;50.30;;;;;;5098477;28;20012;-51
2022/05/24 01:43:15;;;;;;;3.47;1.77;;;22.60;50.20;;;;;;5098480;28;20016;-52
2022/05/24 01:45:45;;;;;;;3.08;1.52;;;22.60;50.30;;;;;;5097551;28;20038;-47
2022/05/24 01:48:14;;;;;;;3.72;1.60;;;22.50;50.20;;;;;;5098010;28;20043;-51
2022/05/24 01:50:41;;;;;;;3.25;1.60;;;22.50;50.20;;;;;;5100952;28;20012;-54
2022/05/24 01:53:18;;;;;;;5.97;1.77;;;22.50;50.30;;;;;;5083553;28;20021;-52
2022/05/24 01:55:52;;;;;;;4.38;1.50;;;22.50;50.00;;;;;;5099693;28;20020;-54
2022/05/24 01:58:20;;;;;;;4.05;1.60;;;22.50;50.10;;;;;;5099183;28;20016;-51
2022/05/24 02:00:49;;;;;;;3.15;1.50;;;22.50;50.20;;;;;;5098065;28;20102;-47
2022/05/24 02:03:16;;;;;;;3.72;1.48;;;22.50;49.90;;;;;;5081833;28;20016;-51
2022/05/24 02:05:42;;;;;;;3.92;1.70;;;22.50;50.10;;;;;;5100800;28;20024;-49
2022/05/24 02:08:09;;;;;;;3.55;1.67;;;22.50;50.10;;;;;;5101392;28;20028;-50
2022/05/24 02:11:02;;;;;;;3.97;1.50;;;22.40;50.00;;;;;;5101116;28;20008;-51
2022/05/24 02:13:33;;;;;;;5.50;1.98;;;22.40;50.10;;;;;;5100325;28;20024;-49
2022/05/24 02:15:59;;;;;;;;;;;22.40;50.00;;;;;;5099805;28;20016;-48
2022/05/24 02:18:26;;;;;;;4.90;1.83;;;22.50;49.90;;;;;;5098548;28;19912;-47
2022/05/24 02:20:51;;;;;;;4.97;1.70;;;22.50;49.90;;;;;;5100258;28;20009;-48
2022/05/24 02:23:18;;;;;;;3.65;1.48;;;22.40;49.70;;;;;;5100449;28;20048;-52
2022/05/24 02:25:53;;;;;;;3.40;1.40;;;22.40;50.00;;;;;;5101071;28;20034;-48
2022/05/24 02:28:24;;;;;;;4.88;1.88;;;22.40;49.90;;;;;;5100074;28;20012;-50
2022/05/24 02:30:51;;;;;;;;;;;22.40;49.70;;;;;;5099419;28;20015;-48
2022/05/24 02:33:18;;;;;;;4.78;1.42;;;22.40;49.80;;;;;;5098025;28;19900;-47
2022/05/24 02:35:44;;;;;;;5.63;1.42;;;22.40;49.70;;;;;;5099696;28;20028;-49
2022/05/24 02:38:09;;;;;;;4.20;1.60;;;22.40;49.70;;;;;;5101354;28;20075;-47
2022/05/24 02:43:27;;;;;;;5.45;1.80;;;22.40;49.60;;;;;;5085372;28;20031;-53
2022/05/24 02:45:53;;;;;;;4.85;1.55;;;22.40;49.60;;;;;;5100650;28;20017;-47
2022/05/24 02:48:19;;;;;;;6.70;2.05;;;22.40;49.70;;;;;;5082466;28;20111;-49
2022/05/24 02:50:46;;;;;;;4.18;1.40;;;22.40;49.70;;;;;;5101082;28;20037;-49
2022/05/24 02:53:15;;;;;;;4.63;1.35;;;22.40;49.80;;;;;;5098622;28;20016;-50
2022/05/24 02:55:41;;;;;;;3.20;1.33;;;22.30;49.60;;;;;;5099602;28;20032;-47
2022/05/24 02:58:08;;;;;;;4.70;1.50;;;22.40;49.40;;;;;;5100046;28;20043;-52
2022/05/24 03:00:34;;;;;;;3.88;1.38;;;22.30;49.50;;;;;;5101885;28;20017;-50
2022/05/24 03:03:00;;;;;;;4.82;1.73;;;22.30;49.40;;;;;;5101306;28;20023;-50
2022/05/24 03:05:26;;;;;;;4.70;1.75;;;22.30;49.40;;;;;;5083700;28;20021;-49
2022/05/24 03:10:36;;;;;;;4.85;1.40;;;22.30;49.40;;;;;;5103140;28;20027;-47
2022/05/24 03:15:48;;;;;;;4.03;1.80;;;22.30;49.50;;;;;;5102942;28;20031;-51
2022/05/24 03:18:15;;;;;;;5.72;1.92;;;22.30;49.20;;;;;;5102501;28;20030;-47
2022/05/24 03:20:43;;;;;;;3.78;1.20;;;22.30;49.40;;;;;;5101923;28;20020;-50
2022/05/24 03:23:09;;;;;;;4.93;1.52;;;22.30;49.30;;;;;;5101929;28;20048;-50
2022/05/24 03:25:35;;;;;;;2.78;1.25;;;22.30;49.20;;;;;;5102400;28;20031;-48
2022/05/24 03:28:01;;;;;;;4.07;1.50;;;22.30;49.30;;;;;;5100921;28;20050;-49
2022/05/24 03:30:27;;;;;;;3.15;1.17;;;22.30;49.30;;;;;;5100293;28;20028;-51
2022/05/24 03:32:54;;;;;;;4.13;1.55;;;22.30;49.10;;;;;;5100094;28;20016;-49
2022/05/24 03:35:21;;;;;;;4.70;1.67;;;22.30;49.10;;;;;;5099844;28;20012;-45
2022/05/24 03:37:46;;;;;;;3.25;1.23;;;22.30;49.00;;;;;;5100035;28;20020;-49
2022/05/24 03:40:12;;;;;;;3.70;1.50;;;22.30;49.20;;;;;;5099395;28;20027;-46
2022/05/24 03:42:39;;;;;;;4.15;1.27;;;22.30;49.80;;;;;;5098577;28;20050;-51
2022/05/24 03:45:06;;;;;;;4.40;1.30;;;22.30;49.10;;;;;;5101013;28;20021;-50
2022/05/24 03:47:32;;;;;;;2.70;1.20;;;22.30;49.10;;;;;;5101169;28;20103;-52
2022/05/24 03:49:58;;;;;;;3.30;1.35;;;22.30;49.10;;;;;;5101852;28;20015;-48
2022/05/24 03:52:24;;;;;;;4.15;1.52;;;22.30;48.90;;;;;;5101625;28;20035;-51
2022/05/24 03:54:50;;;;;;;4.53;1.30;;;22.30;49.00;;;;;;5102006;28;20012;-50
2022/05/24 04:00:00;;;;;;;3.97;1.20;;;22.20;48.80;;;;;;5102302;28;20058;-48
2022/05/24 04:02:26;;;;;;;3.42;1.40;;;22.20;48.90;;;;;;5103588;28;20024;-50
2022/05/24 04:04:52;;;;;;;5.57;2.10;;;22.20;48.80;;;;;;5102113;28;20012;-49
2022/05/24 04:07:19;;;;;;;5.50;1.23;;;22.20;48.70;;;;;;5103184;28;20015;-49
2022/05/24 04:09:46;;;;;;;3.00;1.25;;;22.20;48.70;;;;;;5102272;28;20475;-49
2022/05/24 04:12:13;;;;;;;4.30;1.50;;;22.20;48.80;;;;;;5102414;28;20490;-46
2022/05/24 04:14:39;;;;;;;3.80;1.27;;;22.20;48.60;;;;;;5102901;28;20016;-45
2022/05/24 04:17:05;;;;;;;5.63;1.50;;;22.20;48.80;;;;;;5104135;28;20017;-49
2022/05/24 04:19:31;;;;;;;6.00;1.38;;;22.20;48.60;;;;;;5105990;28;20169;-52
2022/05/24 04:21:58;;;;;;;6.80;1.50;;;22.20;48.50;;;;;;5107235;28;20060;-45
2022/05/24 04:24:24;;;;;;;7.13;1.40;;;22.20;48.50;;;;;;5106528;28;20031;-48
2022/05/24 04:26:50;;;;;;;3.47;1.17;;;22.20;48.50;;;;;;5104989;28;20467;-52
2022/05/24 04:29:16;;;;;;;4.15;1.00;;;22.20;48.60;;;;;;5105224;28;20021;-50
2022/05/24 04:31:42;;;;;;;4.30;1.02;;;22.20;48.60;;;;;;5102960;28;20012;-48
2022/05/24 04:34:08;;;;;;;3.45;1.17;;;22.10;48.70;;;;;;5105255;28;20479;-47
2022/05/24 04:36:34;;;;;;;3.28;1.33;;;22.20;48.50;;;;;;5103609;28;20009;-50
2022/05/24 04:38:59;;;;;;;4.90;1.25;;;22.10;48.50;;;;;;5103008;28;20482;-51
2022/05/24 04:44:10;;;;;;;3.30;1.27;;;22.10;48.50;;;;;;5104291;28;20047;-52
2022/05/24 04:49:21;;;;;;;4.22;1.30;;;22.10;48.40;;;;;;5103138;28;20043;-51
2022/05/24 04:51:47;;;;;;;2.88;1.20;;;22.10;48.40;;;;;;5103607;28;20028;-51
2022/05/24 04:54:13;;;;;;;5.93;1.10;;;22.10;48.30;;;;;;5102990;28;20020;-50
2022/05/24 04:56:40;;;;;;;5.40;1.60;;;22.10;48.40;;;;;;5102799;28;20012;-50
2022/05/24 04:59:07;;;;;;;3.63;1.35;;;22.10;48.40;;;;;;5101707;28;20035;-49
2022/05/24 05:01:34;;;;;;;3.85;1.55;;;22.20;48.40;;;;;;5101526;28;20028;-48
2022/05/24 05:04:00;;;;;;;5.25;1.30;;;22.10;48.20;;;;;;5100842;28;20016;-48
2022/05/24 05:06:26;;;;;;;3.95;1.35;;;22.20;48.40;;;;;;5101242;28;20035;-50
2022/05/24 05:08:53;;;;;;;3.65;1.27;;;22.20;48.30;;;;;;5100951;28;20101;-50
2022/05/24 05:11:18;;;;;;;5.38;1.40;;;22.20;48.10;;;;;;5082682;28;20012;-48
2022/05/24 05:13:45;;;;;;;4.65;1.63;;;22.20;48.20;;;;;;5101168;28;20028;-47
2022/05/24 05:16:10;;;;;;;6.43;1.17;;;22.20;48.20;;;;;;5100950;28;20072;-49
2022/05/24 05:18:36;;;;;;;3.38;1.15;;;22.20;48.20;;;;;;5099311;28;20051;-50
2022/05/24 05:21:02;;;;;;;3.05;1.05;;;22.20;48.30;;;;;;5099935;28;20051;-50
2022/05/24 05:23:28;;;;;;;4.38;1.35;;;22.20;48.10;;;;;;5098869;28;20052;-47
2022/05/24 05:25:54;;;;;;;4.00;1.33;;;22.20;48.00;;;;;;5099267;28;20065;-50
2022/05/24 05:28:20;;;;;;;6.22;1.10;;;22.20;48.10;;;;;;5099455;28;20024;-46
2022/05/24 05:33:31;;;;;;;4.10;1.15;;;22.20;47.90;;;;;;5100987;28;20024;-47
2022/05/24 05:35:57;;;;;;;4.07;1.52;;;22.20;47.90;;;;;;5099366;28;20017;-48
2022/05/24 05:38:23;;;;;;;2.95;1.15;;;22.20;48.00;;;;;;5098466;28;20080;-45
2022/05/24 05:40:50;;;;;;;4.47;1.45;;;22.20;47.90;;;;;;5098827;28;20454;-48
2022/05/24 05:43:16;;;;;;;4.50;1.20;;;22.20;47.80;;;;;;5099571;28;20020;-48
2022/05/24 05:45:41;;;;;;;3.85;1.35;;;22.20;47.80;;;;;;5082876;28;20044;-51
2022/05/24 05:48:08;;;;;;;3.42;1.38;;;22.20;47.90;;;;;;5099449;28;20032;-52
2022/05/24 05:50:34;;;;;;;2.92;1.35;;;22.20;47.80;;;;;;5096902;28;20013;-56
2022/05/24 05:53:03;;;;;;;4.40;1.20;;;22.30;47.80;;;;;;5097326;28;20020;-48
2022/05/24 05:55:30;;;;;;;3.60;1.42;;;22.30;47.80;;;;;;5095171;28;20015;-45
2022/05/24 05:57:56;;;;;;;3.88;1.63;;;22.30;48.30;;;;;;5095720;28;20024;-46
2022/05/24 06:00:22;;;;;;;3.28;1.50;;;22.30;47.60;;;;;;5097170;28;20026;-49
2022/05/24 06:02:49;;;;;;;3.95;1.50;;;22.30;47.50;;;;;;5094346;28;20483;-45
2022/05/24 06:05:15;;;;;;;4.55;1.52;;;22.40;47.50;;;;;;5095744;28;20027;-47
2022/05/24 06:07:41;;;;;;;4.75;1.52;;;22.40;47.40;;;;;;5094403;28;20024;-51
2022/05/24 06:10:09;;;;;;;2.90;1.30;;;22.40;47.40;;;;;;5096187;28;20069;-52
2022/05/24 06:12:35;;;;;;;2.92;1.20;;;22.50;47.30;;;;;;5095868;28;20095;-49
2022/05/24 06:15:01;;;;;;;2.40;1.02;;;22.50;47.20;;;;;;5095185;28;20039;-49
2022/05/24 06:17:27;;;;;;;4.38;1.20;;;22.50;47.10;;;;;;5077075;28;20085;-51
2022/05/24 06:19:53;;;;;;;3.88;1.35;;;22.50;47.00;;;;;;5092364;28;20016;-47
2022/05/24 06:22:20;;;;;;;3.30;1.17;;;22.50;47.00;;;;;;5092983;28;20068;-51
2022/05/24 06:24:46;;;;;;;3.28;1.05;;;22.50;46.90;;;;;;5092583;28;20036;-46
2022/05/24 06:27:13;;;;;;;3.78;1.35;;;22.50;46.90;;;;;;5090686;28;20016;-47
2022/05/24 06:29:39;;;;;;;2.72;1.15;;;22.50;46.90;;;;;;5092527;28;20117;-47
2022/05/24 06:32:08;;;;;;;3.20;1.40;;;22.50;46.90;;;;;;5092349;28;20102;-47
2022/05/24 06:34:34;;;;;;;3.20;1.20;;;22.50;46.90;;;;;;5092640;28;20009;-47
2022/05/24 06:37:01;;;;;;;8.20;1.58;;;22.50;46.80;;;;;;5074300;28;20015;-47
2022/05/24 06:39:27;;;;;;;4.65;1.58;;;22.50;46.70;;;;;;5090587;28;20501;-45
2022/05/24 06:41:53;;;;;;;3.80;1.33;;;22.50;46.70;;;;;;5092636;28;20470;-50
2022/05/24 06:44:21;;;;;;;3.10;0.95;;;22.50;47.20;;;;;;5091427;28;20012;-47
2022/05/24 06:46:50;;;;;;;3.75;1.20;;;22.50;46.70;;;;;;5092023;28;20382;-47
2022/05/24 06:49:16;;;;;;;4.35;1.20;;;22.50;46.70;;;;;;5092744;28;20036;-51
2022/05/24 06:51:42;;;;;;;2.80;0.85;;;22.50;46.70;;;;;;5091467;28;20016;-48
2022/05/24 06:54:08;;;;;;;1.88;0.90;;;22.50;46.70;;;;;;5091202;28;20016;-45
2022/05/24 06:56:34;;;;;;;2.25;0.88;;;22.50;46.60;;;;;;5090936;28;20057;-46
2022/05/24 07:04:38;;;;;;;4.10;1.13;;;22.60;46.50;;;;;;5092284;28;20058;-48
2022/05/24 07:07:04;;;;;;;3.08;1.02;;;22.60;46.40;;;;;;5091147;28;20031;-51
2022/05/24 07:09:31;;;;;;;2.25;1.00;;;22.60;46.40;;;;;;5090472;28;20385;-50
2022/05/24 07:12:01;;;;;;;3.40;1.13;;;22.60;46.30;;;;;;5091778;28;20093;-46
2022/05/24 07:14:27;;;;;;;2.70;1.05;;;22.60;46.20;;;;;;5091326;28;20039;-50
2022/05/24 07:16:53;;;;;;;1.98;0.88;;;22.70;46.20;;;;;;5091069;28;20462;-47
2022/05/24 07:19:20;;;;;;;1.92;1.00;;;22.60;46.10;;;;;;5091387;28;20018;-45
2022/05/24 07:21:46;;;;;;;3.13;1.00;;;22.70;46.10;;;;;;5092515;28;20127;-49
2022/05/24 07:24:12;;;;;;;11.10;1.73;;;22.70;46.10;;;;;;5091242;28;20020;-48
2022/05/24 07:26:38;;;;;;;9.63;1.30;;;22.60;46.80;;;;;;5090767;28;20091;-49
2022/05/24 07:29:04;;;;;;;6.82;1.58;;;22.40;48.00;;;;;;5092375;28;20020;-50
2022/05/24 07:31:30;;;;;;;15.77;1.42;;;22.50;48.30;;;;;;5093374;28;20023;-45
2022/05/24 07:33:59;;;;;;;5.90;1.30;;;22.60;48.80;;;;;;5091689;28;20016;-51
2022/05/24 07:36:26;;;;;;;6.78;1.38;;;22.60;48.70;;;;;;5092561;28;20017;-49
2022/05/24 07:38:51;;;;;;;7.97;1.95;;;22.70;48.20;;;;;;5091471;28;20394;-47
2022/05/24 07:46:47;;;;;;;7.55;1.30;;;21.90;48.50;;;;;;5093092;28;20076;-47
2022/05/24 07:49:13;;;;;;;13.55;1.45;;;22.00;49.80;;;;;;5092421;28;20024;-48
2022/05/24 07:51:39;;;;;;;4.25;1.00;;;22.10;49.20;;;;;;5095362;28;20019;-48
2022/05/24 07:54:05;;;;;;;8.52;1.67;;;22.30;48.80;;;;;;5096444;28;20062;-49
2022/05/24 07:56:32;;;;;;;3.50;1.15;;;22.30;48.50;;;;;;5096268;28;20076;-49
2022/05/24 07:58:58;;;;;;;3.78;0.90;;;22.40;48.60;;;;;;5095582;28;20045;-46
2022/05/24 08:01:24;;;;;;;22.77;1.88;;;22.40;48.50;;;;;;5096413;28;20034;-47
2022/05/24 08:03:50;;;;;;;5.65;1.35;;;22.30;47.20;;;;;;5095929;28;20035;-47
2022/05/24 08:06:17;;;;;;;8.15;0.90;;;22.00;48.30;;;;;;5095114;28;20019;-47
2022/05/24 08:08:43;;;;;;;6.22;1.10;;;21.50;47.90;;;;;;5096880;28;20031;-46
2022/05/24 08:11:09;;;;;;;12.43;1.20;;;21.50;47.90;;;;;;5096062;28;20024;-48
2022/05/24 08:13:35;;;;;;;3.55;0.82;;;21.60;47.60;;;;;;5097417;28;20035;-48
2022/05/24 08:16:02;;;;;;;8.73;1.23;;;21.60;46.90;;;;;;5093373;28;20047;-48
2022/05/24 08:18:29;;;;;;;6.88;1.15;;;21.50;45.20;;;;;;5093449;28;20028;-48
2022/05/24 08:20:55;;;;;;;7.28;1.00;;;20.60;46.70;;;;;;5093927;28;20024;-53
2022/05/24 08:23:21;;;;;;;5.13;0.98;;;19.80;47.10;;;;;;5095032;28;20067;-51
2022/05/24 08:25:48;;;;;;;4.45;1.08;;;19.10;48.50;;;;;;5095273;28;20028;-47
2022/05/24 08:28:14;;;;;;;4.93;1.00;;;18.80;49.90;;;;;;5095093;28;20497;-47
2022/05/24 08:30:40;;;;;;;4.22;0.70;;;18.90;50.40;;;;;;5095047;28;20013;-48
2022/05/24 08:33:06;;;;;;;3.88;1.00;;;18.40;51.10;;;;;;5095452;28;20038;-48
2022/05/24 08:35:32;;;;;;;3.22;0.50;;;18.00;51.60;;;;;;5095445;28;20091;-48
2022/05/24 08:37:59;;;;;;;2.95;0.65;;;18.10;52.10;;;;;;5095241;28;20024;-51
2022/05/24 08:40:25;;;;;;;7.07;0.93;;;18.40;52.10;;;;;;5093491;28;20042;-46
2022/05/24 08:43:12;;;;;;;1.85;0.43;;;18.80;52.10;;;;;;5094885;28;20087;-50
2022/05/24 08:48:39;;;;;;;4.13;1.10;;;18.50;51.20;;;;;;5094361;28;20063;-50
2022/05/24 08:51:06;;;;;;;2.20;0.63;;;18.10;51.30;;;;;;5094238;28;20024;-49
2022/05/24 08:53:36;;;;;;;6.60;0.70;;;18.00;51.60;;;;;;5094804;28;20149;-49
2022/05/24 08:56:05;;;;;;;4.03;0.80;;;17.90;53.00;;;;;;5094692;28;20073;-46
2022/05/24 08:58:32;;;;;;;2.45;0.70;;;18.00;51.90;;;;;;5094393;28;20012;-48
2022/05/24 09:00:58;;;;;;;4.05;0.60;;;18.10;51.60;;;;;;5094425;28;20028;-49
2022/05/24 09:03:25;;;;;;;5.82;1.00;;;17.90;52.20;;;;;;5092245;28;20119;-47
2022/05/24 09:06:10;;;;;;;4.60;0.75;;;17.90;52.70;;;;;;5094324;28;20016;-48
2022/05/24 09:09:05;;;;;;;2.50;0.57;;;17.70;53.90;;;;;;5092354;28;20035;-48
2022/05/24 09:11:54;;;;;;;8.48;1.83;;;17.70;54.70;;;;;;5048336;28;20076;-49
2022/05/24 09:14:28;;;;;;;14.98;1.38;;;17.70;54.10;;;;;;5092586;28;20021;-47
2022/05/24 09:17:28;;;;;;;13.98;1.10;;;17.60;54.40;;;;;;5094346;28;20020;-46
2022/05/24 09:19:54;;;;;;;3.25;0.60;;;17.60;54.20;;;;;;5093771;28;20028;-50
2022/05/24 09:22:23;;;;;;;3.90;0.77;;;17.50;54.70;;;;;;5093763;28;20043;-47
2022/05/24 09:24:56;;;;;;;3.90;0.55;;;17.50;55.20;;;;;;5092760;28;20471;-50
2022/05/24 09:27:28;;;;;;;2.95;0.60;;;17.60;53.90;;;;;;5076505;28;20026;-48
2022/05/24 09:30:36;;;;;;;0.80;0.28;;;17.60;53.40;;;;;;5094110;28;20039;-47
2022/05/24 09:33:22;;;;;;;3.60;0.75;;;17.70;54.10;;;;;;5051719;28;20496;-48
2022/05/24 09:35:50;;;;;;;3.60;0.80;;;17.50;54.20;;;;;;5051109;28;20100;-47
2022/05/24 09:38:17;;;;;;;1.65;0.50;;;17.50;54.30;;;;;;5018037;28;20013;-48
2022/05/24 09:41:05;;;;;;;4.25;0.60;;;17.50;53.20;;;;;;5051403;28;20093;-49
2022/05/24 09:43:33;;;;;;;1.75;0.68;;;17.60;53.70;;;;;;5040547;28;20034;-48
2022/05/24 09:46:05;;;;;;;1.38;0.70;;;17.90;52.50;;;;;;5051187;28;20234;-48
2022/05/24 09:48:33;;;;;;;2.88;0.45;;;18.00;52.40;;;;;;5050849;28;20036;-50
2022/05/24 09:50:59;;;;;;;4.68;0.50;;;17.80;52.80;;;;;;5050851;28;20503;-51
2022/05/24 09:53:27;;;;;;;4.40;0.88;;;17.70;52.80;;;;;;5051014;28;20154;-47
2022/05/24 09:56:23;;;;;;;7.85;1.00;;;17.70;52.60;;;;;;5018018;28;20024;-50
2022/05/24 09:59:00;;;;;;;5.15;0.95;;;17.70;52.70;;;;;;5036889;28;20428;-52
2022/05/24 10:01:40;;;;;;;6.55;1.10;;;18.40;51.30;;;;;;5035518;28;21214;-51
2022/05/24 10:04:12;;;;;;;6.55;1.40;;;18.80;51.00;;;;;;5051930;28;20032;-50
2022/05/24 10:06:40;;;;;;;8.23;0.95;;;19.60;50.00;;;;;;5051993;28;20150;-52
2022/05/24 10:09:19;;;;;;;10.95;1.05;;;20.20;48.60;;;;;;5074627;28;20116;-45
2022/05/24 10:12:21;;;;;;;3.22;0.80;;;20.80;47.50;;;;;;5094476;28;20012;-46
2022/05/24 10:15:10;;;;;;;6.65;1.20;;;21.20;46.70;;;;;;5090596;28;20024;-51
2022/05/24 10:18:10;;;;;;;5.78;0.80;;;21.50;45.90;;;;;;5075395;28;20038;-48
2022/05/24 10:21:03;;;;;;;9.43;1.23;;;21.80;45.80;;;;;;5093439;28;20022;-50
2022/05/24 10:24:00;;;;;;;6.82;0.85;;;22.00;45.00;;;;;;5093422;28;20044;-48
2022/05/24 10:26:26;;;;;;;4.00;0.82;;;22.20;44.80;;;;;;5087932;28;20047;-50
2022/05/24 10:29:13;;;;;;;5.50;0.93;;;22.30;44.60;;;;;;5093611;28;20032;-47
2022/05/24 10:31:42;;;;;;;5.75;1.45;;;22.40;44.70;;;;;;5094368;28;20008;-48
2022/05/24 10:40:38;;;;;;;7.93;1.13;;;22.70;44.40;;;;;;5092605;28;20028;-51
2022/05/24 10:43:04;;;;;;;5.72;1.00;;;22.70;44.60;;;;;;5094356;28;20023;-48
2022/05/24 10:45:49;;;;;;;4.38;1.20;;;22.80;44.50;;;;;;5091401;28;20016;-49
2022/05/24 10:48:36;;;;;;;14.13;1.52;;;22.70;42.70;;;;;;5092926;28;20024;-52
2022/05/24 10:51:37;;;;;;;10.23;1.63;;;21.90;44.90;;;;;;5085978;28;20100;-50
2022/05/24 10:54:18;;;;;;;16.95;1.90;;;22.30;45.50;;;;;;5092234;28;20107;-53
2022/05/24 10:57:05;;;;;;;14.77;1.67;;;22.70;45.60;;;;;;5093817;28;20016;-55
2022/05/24 10:59:42;;;;;;;10.52;1.45;;;22.90;45.90;;;;;;5092918;28;20016;-54
2022/05/24 11:02:36;;;;;;;18.55;2.00;;;23.10;46.00;;;;;;5092694;28;20019;-54
2022/05/24 11:05:30;;;;;;;47.80;6.53;;;23.30;46.40;;;;;;5063652;28;20028;-54
2022/05/24 11:08:29;;;;;;;61.20;8.57;;;23.40;47.00;;;;;;5092392;28;20032;-52
2022/05/24 11:10:55;;;;;;;75.82;11.07;;;23.50;47.40;;;;;;5075096;28;20024;-54
2022/05/24 11:13:46;;;;;;;127.70;14.77;;;23.60;48.60;;;;;;5092583;28;20357;-52
2022/05/24 11:16:15;;;;;;;115.95;13.80;;;23.80;48.40;;;;;;5080710;28;20107;-54
2022/05/24 11:18:41;;;;;;;115.43;13.57;;;23.90;48.80;;;;;;5091304;28;20051;-53
2022/05/24 11:21:25;;;;;;;170.77;20.23;;;23.90;48.90;;;;;;5091660;28;20027;-54
2022/05/24 11:24:01;;;;;;;128.68;17.20;;;24.00;49.40;;;;;;5091391;28;20028;-59
2022/05/24 11:26:30;;;;;;;124.32;17.88;;;24.10;49.70;;;;;;5090938;28;20020;-57
2022/05/24 11:29:19;;;;;;;112.72;14.63;;;24.20;49.70;;;;;;5091329;28;20481;-58
2022/05/24 11:31:59;;;;;;;150.43;17.90;;;24.20;49.80;;;;;;5091457;28;20012;-58
2022/05/24 11:34:27;;;;;;;181.68;20.40;;;24.30;50.10;;;;;;5092545;28;20530;-58
2022/05/24 11:37:14;;;;;;;72.75;10.50;;;24.30;50.10;;;;;;5091557;28;20339;-59
2022/05/24 11:39:43;;;;;;;67.70;7.95;;;23.90;46.70;;;;;;5090044;28;20439;-58
2022/05/24 11:42:41;;;;;;;51.17;6.40;;;22.90;46.90;;;;;;5073952;28;20066;-57
2022/05/24 11:45:28;;;;;;;39.47;5.55;;;22.30;46.40;;;;;;5090538;28;20051;-56
2022/05/24 11:47:58;;;;;;;41.80;4.70;;;22.60;47.30;;;;;;5091586;28;20390;-57
2022/05/24 11:50:43;;;;;;;29.85;4.28;;;22.30;47.50;;;;;;5091639;28;20490;-54
2022/05/24 11:53:38;;;;;;;29.15;2.65;;;22.60;46.50;;;;;;5091994;28;20021;-52
2022/05/24 11:56:09;;;;;;;12.73;2.08;;;22.70;45.30;;;;;;5092557;28;20048;-57
2022/05/24 11:58:35;;;;;;;16.33;2.20;;;22.90;44.70;;;;;;5091837;28;20024;-56
2022/05/24 12:01:04;;;;;;;16.65;1.73;;;22.70;44.60;;;;;;5090067;28;20032;-56
2022/05/24 12:09:21;;;;;;;15.88;2.03;;;22.90;45.10;;;;;;5093522;28;20421;-56
2022/05/24 12:11:47;;;;;;;12.65;1.92;;;23.00;45.00;;;;;;5091519;28;20179;-56
2022/05/24 12:14:37;;;;;;;13.75;1.83;;;23.00;45.00;;;;;;5072475;28;20127;-57
2022/05/24 12:17:06;;;;;;;17.83;2.30;;;23.00;46.30;;;;;;5090283;28;20022;-56
2022/05/24 12:19:38;;;;;;;25.15;2.25;;;23.20;46.90;;;;;;5089055;28;20161;-57
2022/05/24 12:22:06;;;;;;;22.98;2.20;;;23.40;47.10;;;;;;5090434;28;20048;-56
2022/05/24 12:24:38;;;;;;;19.17;2.10;;;23.50;47.60;;;;;;5090195;28;20165;-55
2022/05/24 12:27:19;;;;;;;17.90;1.83;;;23.60;48.00;;;;;;5091391;28;20028;-55
2022/05/24 12:29:54;;;;;;;7.35;1.23;;;22.90;47.30;;;;;;5089483;28;20028;-55
2022/05/24 12:32:25;;;;;;;8.75;1.23;;;22.00;47.80;;;;;;5089411;28;20083;-55
2022/05/24 12:34:51;;;;;;;7.38;1.30;;;21.70;49.40;;;;;;5090049;28;20043;-56
2022/05/24 12:37:29;;;;;;;4.43;0.95;;;21.90;48.70;;;;;;5092618;28;20032;-55
2022/05/24 12:40:24;;;;;;;7.80;1.10;;;21.50;48.20;;;;;;5096196;28;20482;-58
2022/05/24 12:42:57;;;;;;;4.72;0.90;;;21.10;48.90;;;;;;5081592;28;20032;-54
2022/05/24 12:45:32;;;;;;;2.40;0.60;;;21.40;48.20;;;;;;5095887;28;20054;-56
2022/05/24 12:47:58;;;;;;;3.95;0.80;;;21.30;47.70;;;;;;5095680;28;20028;-54
2022/05/24 12:50:36;;;;;;;2.72;0.70;;;21.50;47.30;;;;;;5095055;28;20096;-55
2022/05/24 12:53:05;;;;;;;1.95;0.65;;;21.60;46.70;;;;;;5095849;28;20032;-58
2022/05/24 12:58:46;;;;;;;3.03;0.85;;;21.60;46.40;;;;;;5095535;28;20089;-53
2022/05/24 13:01:17;;;;;;;1.77;0.57;;;21.50;46.60;;;;;;5086429;28;20034;-52
2022/05/24 13:03:53;;;;;;;2.90;1.08;;;21.70;46.50;;;;;;5095783;28;20008;-53
2022/05/24 13:06:29;;;;;;;2.97;0.73;;;21.80;46.70;;;;;;5095956;28;20043;-53
2022/05/24 13:09:19;;;;;;;2.55;0.75;;;21.80;46.90;;;;;;5094760;28;20030;-52
2022/05/24 13:11:49;;;;;;;1.88;0.65;;;21.90;47.20;;;;;;5095590;28;20047;-53
2022/05/24 13:14:38;;;;;;;2.67;0.70;;;21.80;47.50;;;;;;5094044;28;20032;-52
2022/05/24 13:17:06;;;;;;;1.63;0.45;;;21.80;47.80;;;;;;5094974;28;20439;-52
2022/05/24 13:20:06;;;;;;;3.90;0.75;;;21.80;48.00;;;;;;5094770;28;20008;-52
2022/05/24 13:22:49;;;;;;;2.58;0.60;;;21.90;48.00;;;;;;5052516;28;20045;-53
2022/05/24 13:25:21;;;;;;;3.83;0.88;;;22.00;47.90;;;;;;5035516;28;20318;-52
2022/05/24 13:27:54;;;;;;;1.20;0.43;;;21.80;47.30;;;;;;5052656;28;20120;-49
2022/05/24 13:33:37;;;;;;;2.45;0.85;;;21.10;48.50;;;;;;5038682;28;20454;-50
2022/05/24 13:36:16;;;;;;;1.80;0.50;;;20.80;49.40;;;;;;5052206;28;20504;-49
2022/05/24 13:38:43;;;;;;;6.80;0.70;;;20.60;50.60;;;;;;5052371;28;20033;-47
2022/05/24 13:41:09;;;;;;;1.77;0.45;;;20.40;51.40;;;;;;5036014;28;20071;-55
2022/05/24 13:43:44;;;;;;;2.80;0.30;;;20.30;51.90;;;;;;5036244;28;20021;-53
2022/05/24 13:46:19;;;;;;;3.47;0.77;;;20.10;51.80;;;;;;5052140;28;20027;-52
2022/05/24 13:48:52;;;;;;;4.60;0.70;;;20.00;52.90;;;;;;5052155;28;20025;-52
2022/05/24 13:51:45;;;;;;;28.40;3.22;;;19.90;53.80;;;;;;5051998;28;20113;-51
2022/05/24 13:54:32;;;;;;;5.25;1.15;;;19.60;54.50;;;;;;5049867;28;20091;-52
2022/05/24 13:56:57;;;;;;;3.00;0.90;;;19.10;55.40;;;;;;5038927;28;20075;-52
2022/05/24 13:59:23;;;;;;;6.18;0.70;;;19.10;56.40;;;;;;5073199;28;20440;-51
2022/05/24 14:01:55;;;;;;;4.55;0.80;;;19.50;55.30;;;;;;5074735;28;20029;-51
2022/05/24 14:04:25;;;;;;;4.88;0.80;;;20.00;54.20;;;;;;5073409;28;20019;-53